Terminal Aerodrome Forecast
Issued by NWS

Home | Current Version | Previous Version | Text Only | Print | Product List | Glossary On
Versions: 1 2 3 4 5 6 7 8 9 10 11 12 13 14 15 16 17 18
330
FTUS43 KIWX 110520
TAFSBN
TAF
KSBN 110520Z 1106/1206 16006KT 1SM -SN OVC015
      TEMPO 1106/1110 2SM -SN
     FM112200 18011KT 1SM -SN OVC008
     FM120300 22011KT 2SM -SN OVC008=

USA.gov is the U.S. government's official web portal to all federal, state and local government web resources and services.